NCAR-RAP Real-Time Weather Data

Output produced by METARs form (06 May 2021  17:06 UTC)
found at http://weather.rap.ucar.edu/surface/
 
KCRW 061654Z 31003KT 10SM SCT042 OVC160 13/02 A3012 RMK AO2 SLP198 T01280022
KCRW 061554Z VRB03KT 10SM SCT038 BKN180 12/02 A3014 RMK AO2 SLP208 T01170017
KCRW 061454Z VRB03KT 10SM SCT035 BKN200 12/02 A3015 RMK AO2 SLP210 T01170022 58001
KCRW 061354Z 00000KT 10SM FEW018 SCT200 10/05 A3018 RMK AO2 SLP219 T01000050
KCRW 061254Z 00000KT 10SM FEW001 SCT180 06/06 A3017 RMK AO2 SLP218 T00610056
KCRW 061226Z 00000KT 4SM BR SCT000 06/06 A3017 RMK AO2 FG SCT000 T00560056 $
KCRW 061154Z 00000KT 1/8SM FG BKN000 04/04 A3015 RMK AO2 SLP213 FG BKN000 70001 T00390039 10072 20028 53015
KCRW 061054Z 00000KT 1/8SM FG BKN000 04/04 A3013 RMK AO2 SLP203 FG BKN000 T00390039
KCRW 061012Z 00000KT 1/4SM FG BKN000 04/04 A3011 RMK AO2 FG BKN000 T00390039
KCRW 060954Z 00000KT 4SM BR BKN000 03/03 A3011 RMK AO2 SLP197 FG BKN000 T00330033
KCRW 060951Z 00000KT 4SM BR BKN000 03/03 A3011 RMK AO2 FG BKN000
KCRW 060854Z 00000KT 10SM FEW000 04/04 A3012 RMK AO2 SLP201 FG FEW000 T00390039 53001
KCRW 060829Z 00000KT 10SM FEW000 04/04 A3013 RMK AO2 FG FEW000 T00390039
KCRW 060754Z 00000KT 10SM CLR 04/04 A3012 RMK AO2 SLP200 T00440039
KCRW 060654Z 00000KT 10SM CLR 06/04 A3011 RMK AO2 SLP198 T00560044
KCRW 060554Z 00000KT 10SM CLR 07/04 A3012 RMK AO2 SLP199 T00720044 10139 20072 50005
KCRW 060454Z 36003KT 10SM SCT060 09/05 A3012 RMK AO2 SLP199 T00890050 401830083
KCRW 060354Z 34005KT 10SM CLR 09/05 A3012 RMK AO2 SLP199 T00940050
KCRW 060254Z 33005KT 10SM CLR 10/07 A3010 RMK AO2 SLP192 T01000067 51021
KCRW 060154Z 35003KT 10SM FEW060 11/08 A3008 RMK AO2 SLP185 T01060078